Time;durP1;ratioP1;P1;durP2;ratioP2;P2;SDS_P1;SDS_P2;PMS_P1;PMS_P2;Temp;Humidity;BMP_temperature;BMP_pressure;BME280_temperature;BME280_humidity;BME280_pressure;Samples;Min_cycle;Max_cycle;Signal;HPM_P1;HPM_P2
2021/08/12 00:01:41;;;;;;;;;;;25.20;51.80;;;;;;1598204;73;705;-73
2021/08/12 00:03:44;;;;;;;;;;;25.20;51.80;;;;;;1594607;74;686;-73
2021/08/12 00:05:46;;;;;;;;;;;25.20;51.80;;;;;;1599133;73;707;-73
2021/08/12 00:07:48;;;;;;;;;;;25.30;51.70;;;;;;1590817;73;1940;-73
2021/08/12 00:09:50;;;;;;;;;;;25.30;51.70;;;;;;1607343;73;1124;-73
2021/08/12 00:11:52;;;;;;;;;;;25.30;51.80;;;;;;1601892;74;708;-73
2021/08/12 00:13:54;;;;;;;;;;;25.20;51.70;;;;;;1594010;74;750;-74
2021/08/12 00:15:56;;;;;;;;;;;25.20;51.70;;;;;;1592944;74;773;-73
2021/08/12 00:17:58;;;;;;;;;;;25.20;51.70;;;;;;1605230;74;713;-73
2021/08/12 00:20:00;;;;;;;;;;;25.30;51.70;;;;;;1593761;72;1136;-75
2021/08/12 00:22:01;;;;;;;;;;;25.20;51.70;;;;;;1598733;74;771;-73
2021/08/12 00:24:03;;;;;;;;;;;25.20;51.80;;;;;;1598139;73;662;-74
2021/08/12 00:26:05;;;;;;;;;;;25.20;51.70;;;;;;1600430;72;1941;-74
2021/08/12 00:28:07;;;;;;;;;;;25.20;51.70;;;;;;1593216;73;781;-74
2021/08/12 00:30:09;;;;;;;;;;;25.30;51.80;;;;;;1600779;73;1144;-77
2021/08/12 00:32:11;;;;;;;;;;;25.20;51.80;;;;;;1600573;74;722;-74
2021/08/12 00:34:13;;;;;;;;;;;25.30;51.80;;;;;;1603470;73;750;-76
2021/08/12 00:36:15;;;;;;;;;;;25.30;51.80;;;;;;1607404;73;722;-73
2021/08/12 00:38:17;;;;;;;;;;;25.20;51.80;;;;;;1592712;73;1205;-73
2021/08/12 00:40:20;;;;;;;;;;;25.20;51.80;;;;;;1590630;73;815;-73
2021/08/12 00:42:22;;;;;;;;;;;25.20;51.80;;;;;;1594131;74;780;-73
2021/08/12 00:44:26;;;;;;;;;;;25.20;51.80;;;;;;1599255;74;910;-73
2021/08/12 00:46:28;;;;;;;;;;;25.30;51.80;;;;;;1601822;73;1912;-73
2021/08/12 00:48:30;;;;;;;;;;;25.20;51.70;;;;;;1595777;74;1181;-73
2021/08/12 00:50:31;;;;;;;;;;;25.30;51.80;;;;;;1597481;74;726;-73
2021/08/12 00:52:33;;;;;;;;;;;25.20;51.80;;;;;;1599289;74;688;-73
2021/08/12 00:54:35;;;;;;;;;;;25.20;51.80;;;;;;1596040;73;546;-73
2021/08/12 00:56:37;;;;;;;;;;;25.20;51.70;;;;;;1566920;74;902;-73
2021/08/12 00:58:39;;;;;;;;;;;25.20;51.80;;;;;;1586797;73;1095;-73
2021/08/12 01:00:41;;;;;;;;;;;25.20;51.70;;;;;;1612435;73;733;-76
2021/08/12 01:02:43;;;;;;;;;;;25.20;51.80;;;;;;1615847;72;743;-73
2021/08/12 01:04:45;;;;;;;;;;;25.20;51.80;;;;;;1609078;72;720;-74
2021/08/12 01:06:48;;;;;;;;;;;25.20;51.80;;;;;;1615525;72;1923;-76
2021/08/12 01:09:04;;;;;;;;;;;25.30;51.80;;;;;;1614657;72;1147;-74
2021/08/12 01:11:08;;;;;;;;;;;25.20;51.80;;;;;;1600386;72;803;-77
2021/08/12 01:13:28;;;;;;;;;;;25.20;51.80;;;;;;1604236;73;1121;-76
2021/08/12 01:15:31;;;;;;;;;;;25.20;51.80;;;;;;1597038;73;730;-73
2021/08/12 01:17:35;;;;;;;;;;;25.10;51.80;;;;;;1615978;72;769;-73
2021/08/12 01:19:50;;;;;;;;;;;25.30;51.80;;;;;;1617399;72;1517;-73
2021/08/12 01:21:56;;;;;;;;;;;25.20;51.80;;;;;;1603101;72;749;-74
2021/08/12 01:23:59;;;;;;;;;;;25.20;51.80;;;;;;1616428;72;724;-73
2021/08/12 01:26:01;;;;;;;;;;;25.20;51.80;;;;;;1616044;72;709;-73
2021/08/12 01:28:05;;;;;;;;;;;25.30;51.70;;;;;;1615741;72;1913;-75
2021/08/12 01:30:11;;;;;;;;;;;25.20;51.60;;;;;;1629070;72;1084;-74
2021/08/12 01:32:18;;;;;;;;;;;25.20;51.60;;;;;;1628384;72;699;-74
2021/08/12 01:34:39;;;;;;;;;;;25.20;51.50;;;;;;1595441;73;939;-73
2021/08/12 01:36:42;;;;;;;;;;;25.10;51.50;;;;;;1617052;72;707;-72
2021/08/12 01:38:43;;;;;;;;;;;25.20;51.50;;;;;;1630340;72;1154;-73
2021/08/12 01:40:45;;;;;;;;;;;25.20;51.40;;;;;;1613527;72;735;-73
2021/08/12 01:42:47;;;;;;;;;;;25.10;51.40;;;;;;1624132;72;722;-73
2021/08/12 01:44:49;;;;;;;;;;;25.20;51.50;;;;;;1621772;72;778;-73
2021/08/12 01:46:51;;;;;;;;;;;25.20;51.40;;;;;;1619298;72;1917;-73
2021/08/12 01:48:54;;;;;;;;;;;25.20;51.40;;;;;;1618304;72;1196;-73
2021/08/12 01:50:55;;;;;;;;;;;25.10;51.40;;;;;;1622937;72;713;-73
2021/08/12 01:52:57;;;;;;;;;;;25.20;51.30;;;;;;1626614;72;735;-74
2021/08/12 01:54:59;;;;;;;;;;;25.20;51.30;;;;;;1612612;72;708;-76
2021/08/12 01:57:01;;;;;;;;;;;25.20;51.20;;;;;;1623940;72;677;-74
2021/08/12 01:59:03;;;;;;;;;;;25.20;51.20;;;;;;1609843;72;1154;-75
2021/08/12 02:01:05;;;;;;;;;;;25.10;51.20;;;;;;1609543;72;728;-73
2021/08/12 02:03:07;;;;;;;;;;;25.20;51.20;;;;;;1613081;72;731;-74
2021/08/12 02:05:12;;;;;;;;;;;25.10;51.20;;;;;;1611078;73;800;-73
2021/08/12 02:07:12;;;;;;;;;;;25.20;51.20;;;;;;1613530;72;2098;-74
2021/08/12 02:09:14;;;;;;;;;;;25.20;51.10;;;;;;1609096;72;1059;-74
2021/08/12 02:11:16;;;;;;;;;;;25.10;51.10;;;;;;1623910;72;718;-73
2021/08/12 02:13:18;;;;;;;;;;;25.20;51.10;;;;;;1611057;72;793;-73
2021/08/12 02:15:20;;;;;;;;;;;25.20;51.10;;;;;;1611828;72;700;-74
2021/08/12 02:17:22;;;;;;;;;;;25.20;51.10;;;;;;1621176;72;734;-74
2021/08/12 02:19:24;;;;;;;;;;;25.20;51.10;;;;;;1621818;72;1200;-73
2021/08/12 02:21:35;;;;;;;;;;;25.20;51.10;;;;;;1617564;72;680;-73
2021/08/12 02:23:44;;;;;;;;;;;25.10;51.10;;;;;;1619607;72;853;-75
2021/08/12 02:25:54;;;;;;;;;;;25.10;51.00;;;;;;1612077;72;696;-74
2021/08/12 02:27:56;;;;;;;;;;;25.10;51.00;;;;;;1620071;72;1913;-74
2021/08/12 02:29:58;;;;;;;;;;;25.10;51.00;;;;;;1631471;72;1111;-73
2021/08/12 02:32:00;;;;;;;;;;;25.20;51.00;;;;;;1611723;72;716;-74
2021/08/12 02:34:02;;;;;;;;;;;25.10;51.00;;;;;;1610039;72;718;-75
2021/08/12 02:36:08;;;;;;;;;;;25.10;51.00;;;;;;1616597;72;689;-73
2021/08/12 02:38:08;;;;;;;;;;;25.20;50.90;;;;;;1610177;72;808;-73
2021/08/12 02:40:11;;;;;;;;;;;25.10;50.90;;;;;;1614394;72;1277;-73
2021/08/12 02:42:13;;;;;;;;;;;25.10;50.90;;;;;;1619872;72;651;-73
2021/08/12 02:44:15;;;;;;;;;;;25.10;50.80;;;;;;1626774;72;770;-73
2021/08/12 02:46:17;;;;;;;;;;;25.10;50.90;;;;;;1630860;72;706;-75
2021/08/12 02:48:19;;;;;;;;;;;25.10;50.80;;;;;;1621683;72;1919;-74
2021/08/12 02:50:20;;;;;;;;;;;25.10;50.80;;;;;;1587052;74;717;-76
2021/08/12 02:52:22;;;;;;;;;;;25.10;50.80;;;;;;1615408;72;656;-73
2021/08/12 02:54:24;;;;;;;;;;;25.10;50.80;;;;;;1611916;72;730;-73
2021/08/12 02:56:26;;;;;;;;;;;25.10;50.80;;;;;;1607483;72;608;-78
2021/08/12 02:58:32;;;;;;;;;;;25.10;50.80;;;;;;1615712;72;1166;-73
2021/08/12 03:00:31;;;;;;;;;;;25.00;50.80;;;;;;1608561;72;1157;-73
2021/08/12 03:02:34;;;;;;;;;;;25.10;50.90;;;;;;1607206;72;746;-73
2021/08/12 03:04:36;;;;;;;;;;;25.00;50.90;;;;;;1607944;73;657;-73
2021/08/12 03:06:38;;;;;;;;;;;25.10;50.90;;;;;;1605213;72;743;-74
2021/08/12 03:08:40;;;;;;;;;;;25.10;50.90;;;;;;1607151;72;1926;-73
2021/08/12 03:10:42;;;;;;;;;;;25.10;50.90;;;;;;1609304;72;722;-73
2021/08/12 03:12:44;;;;;;;;;;;25.10;50.90;;;;;;1609510;72;793;-77
2021/08/12 03:14:46;;;;;;;;;;;25.10;50.90;;;;;;1616334;72;679;-74
2021/08/12 03:16:48;;;;;;;;;;;25.10;50.90;;;;;;1608182;72;794;-72
2021/08/12 03:18:50;;;;;;;;;;;25.10;50.90;;;;;;1602347;72;1136;-72
2021/08/12 03:20:51;;;;;;;;;;;25.00;50.80;;;;;;1598921;73;221958;-59
2021/08/12 03:22:54;;;;;;;;;;;25.00;50.90;;;;;;1561560;74;1211;-59
2021/08/12 03:24:56;;;;;;;;;;;25.00;50.90;;;;;;1565901;74;753;-60
2021/08/12 03:26:58;;;;;;;;;;;25.00;50.90;;;;;;1560781;74;914;-60
2021/08/12 03:29:00;;;;;;;;;;;25.10;50.80;;;;;;1566178;74;1939;-60
2021/08/12 03:31:02;;;;;;;;;;;25.10;50.80;;;;;;1569281;74;768;-60
2021/08/12 03:33:04;;;;;;;;;;;25.10;50.80;;;;;;1561138;74;1109;-60
2021/08/12 03:35:07;;;;;;;;;;;25.10;50.80;;;;;;1563150;74;717;-60
2021/08/12 03:37:09;;;;;;;;;;;25.10;50.70;;;;;;1572414;74;784;-60
2021/08/12 03:39:10;;;;;;;;;;;25.10;50.70;;;;;;1595153;73;652;-60
2021/08/12 03:41:12;;;;;;;;;;;25.10;50.70;;;;;;1561178;74;799;-61
2021/08/12 03:43:14;;;;;;;;;;;25.00;50.70;;;;;;1583982;74;1119;-60
2021/08/12 03:45:16;;;;;;;;;;;25.10;50.70;;;;;;1595425;73;773;-60
2021/08/12 03:47:18;;;;;;;;;;;25.10;50.70;;;;;;1601075;72;1930;-60
2021/08/12 03:49:20;;;;;;;;;;;25.10;50.70;;;;;;1588981;73;776;-60
2021/08/12 03:51:22;;;;;;;;;;;25.10;50.70;;;;;;1585274;73;881;-59
2021/08/12 03:53:24;;;;;;;;;;;25.10;50.70;;;;;;1579363;73;1158;-60
2021/08/12 03:55:26;;;;;;;;;;;25.10;50.70;;;;;;1591857;73;746;-60
2021/08/12 03:57:28;;;;;;;;;;;25.00;50.70;;;;;;1589334;73;748;-60
2021/08/12 03:59:30;;;;;;;;;;;25.10;50.70;;;;;;1591132;73;800;-59
2021/08/12 04:01:32;;;;;;;;;;;25.00;50.70;;;;;;1592688;73;712;-59
2021/08/12 04:03:34;;;;;;;;;;;25.10;50.70;;;;;;1587546;73;1150;-59
2021/08/12 04:05:36;;;;;;;;;;;25.00;50.60;;;;;;1586675;73;794;-60
2021/08/12 04:07:38;;;;;;;;;;;25.00;50.60;;;;;;1584476;73;1931;-60
2021/08/12 04:09:40;;;;;;;;;;;25.00;50.60;;;;;;1588975;73;823;-60
2021/08/12 04:11:42;;;;;;;;;;;25.00;50.60;;;;;;1591033;73;719;-60
2021/08/12 04:13:44;;;;;;;;;;;25.00;50.60;;;;;;1589342;72;1131;-59
2021/08/12 04:15:46;;;;;;;;;;;25.10;50.60;;;;;;1565668;74;839;-60
2021/08/12 04:17:48;;;;;;;;;;;25.00;50.70;;;;;;1595767;72;739;-60
2021/08/12 04:19:50;;;;;;;;;;;25.00;50.70;;;;;;1573516;74;798;-61
2021/08/12 04:21:52;;;;;;;;;;;25.00;50.60;;;;;;1598629;73;965;-60
2021/08/12 04:23:54;;;;;;;;;;;25.10;50.60;;;;;;1589515;72;1247;-61
2021/08/12 04:25:55;;;;;;;;;;;25.00;50.60;;;;;;1595804;72;782;-60
2021/08/12 04:27:57;;;;;;;;;;;25.00;50.60;;;;;;1594225;72;1937;-59
2021/08/12 04:29:59;;;;;;;;;;;25.00;50.50;;;;;;1596874;72;711;-59
2021/08/12 04:32:01;;;;;;;;;;;25.00;50.50;;;;;;1597721;73;798;-59
2021/08/12 04:34:03;;;;;;;;;;;25.00;50.50;;;;;;1595751;72;1123;-59
2021/08/12 04:36:05;;;;;;;;;;;25.00;50.50;;;;;;1597848;72;712;-59
2021/08/12 04:38:07;;;;;;;;;;;25.00;50.60;;;;;;1587421;73;650;-59
2021/08/12 04:40:09;;;;;;;;;;;25.10;50.70;;;;;;1596339;72;729;-59
2021/08/12 04:42:11;;;;;;;;;;;25.00;50.70;;;;;;1588542;73;676;-59
2021/08/12 04:44:13;;;;;;;;;;;25.00;50.60;;;;;;1603014;73;1131;-59
2021/08/12 04:46:15;;;;;;;;;;;25.10;50.60;;;;;;1589700;73;653;-59
2021/08/12 04:48:17;;;;;;;;;;;25.00;50.60;;;;;;1585766;72;1941;-59
2021/08/12 04:50:18;;;;;;;;;;;25.10;50.50;;;;;;1600219;73;712;-59
2021/08/12 04:52:20;;;;;;;;;;;25.00;50.50;;;;;;1560365;75;1168;-60
2021/08/12 04:54:22;;;;;;;;;;;25.00;50.50;;;;;;1604430;73;760;-59
2021/08/12 04:56:24;;;;;;;;;;;25.10;50.60;;;;;;1601290;72;677;-59
2021/08/12 04:58:26;;;;;;;;;;;25.00;50.60;;;;;;1608813;72;695;-59
2021/08/12 05:00:28;;;;;;;;;;;25.00;50.70;;;;;;1592591;72;789;-60
2021/08/12 05:02:30;;;;;;;;;;;25.00;50.70;;;;;;1551807;74;1157;-59
2021/08/12 05:04:32;;;;;;;;;;;25.00;50.70;;;;;;1567504;75;666;-59
2021/08/12 05:06:34;;;;;;;;;;;25.00;50.70;;;;;;1607668;73;978;-60
2021/08/12 05:08:36;;;;;;;;;;;25.00;50.70;;;;;;1604920;73;1925;-60
2021/08/12 05:10:37;;;;;;;;;;;25.00;50.70;;;;;;1573359;74;701;-60
2021/08/12 05:12:39;;;;;;;;;;;25.10;50.80;;;;;;1590090;73;1137;-60
2021/08/12 05:14:41;;;;;;;;;;;25.10;50.70;;;;;;1565964;74;766;-60
2021/08/12 05:16:43;;;;;;;;;;;25.00;50.70;;;;;;1559718;74;703;-60
2021/08/12 05:18:45;;;;;;;;;;;25.00;50.70;;;;;;1593712;73;727;-60
2021/08/12 05:20:47;;;;;;;;;;;25.00;50.80;;;;;;1592381;73;776;-61
2021/08/12 05:22:49;;;;;;;;;;;25.00;50.80;;;;;;1594293;72;1146;-60
2021/08/12 05:24:51;;;;;;;;;;;25.00;50.90;;;;;;1596796;73;798;-61
2021/08/12 05:26:53;;;;;;;;;;;25.00;50.90;;;;;;1557370;75;822;-60
2021/08/12 05:28:55;;;;;;;;;;;25.00;51.00;;;;;;1572813;74;1943;-60
2021/08/12 05:30:56;;;;;;;;;;;25.00;51.10;;;;;;1555391;74;729;-60
2021/08/12 05:32:58;;;;;;;;;;;25.00;51.20;;;;;;1577603;74;1110;-59
2021/08/12 05:35:00;;;;;;;;;;;25.10;51.20;;;;;;1570549;74;720;-59
2021/08/12 05:37:02;;;;;;;;;;;25.10;51.30;;;;;;1594421;73;802;-60
2021/08/12 05:39:04;;;;;;;;;;;25.20;51.20;;;;;;1595327;72;785;-59
2021/08/12 05:41:06;;;;;;;;;;;25.10;51.10;;;;;;1590989;73;736;-59
2021/08/12 05:43:08;;;;;;;;;;;25.10;51.00;;;;;;1589810;73;1129;-60
2021/08/12 05:45:10;;;;;;;;;;;25.10;51.00;;;;;;1589639;72;727;-60
2021/08/12 05:47:11;;;;;;;;;;;25.10;51.00;;;;;;1595733;72;1140;-59
2021/08/12 05:49:13;;;;;;;;;;;25.10;51.00;;;;;;1585097;72;1944;-62
2021/08/12 05:51:15;;;;;;;;;;;25.10;51.00;;;;;;1591168;73;677;-60
2021/08/12 05:53:17;;;;;;;;;;;25.10;50.90;;;;;;1587991;72;1154;-60
2021/08/12 05:55:19;;;;;;;;;;;25.10;51.00;;;;;;1599263;73;787;-60
2021/08/12 05:57:21;;;;;;;;;;;25.10;51.00;;;;;;1590745;73;807;-60
2021/08/12 05:59:23;;;;;;;;;;;25.10;50.90;;;;;;1553346;75;757;-59
2021/08/12 06:01:25;;;;;;;;;;;25.10;50.90;;;;;;1562498;75;811;-60
2021/08/12 06:03:27;;;;;;;;;;;25.10;50.90;;;;;;1596867;73;1134;-61
2021/08/12 06:05:29;;;;;;;;;;;25.10;50.90;;;;;;1610545;73;697;-59
2021/08/12 06:07:31;;;;;;;;;;;25.10;50.90;;;;;;1593007;73;731;-61
2021/08/12 06:09:32;;;;;;;;;;;25.10;50.80;;;;;;1590412;73;1952;-60
2021/08/12 06:11:34;;;;;;;;;;;25.10;50.90;;;;;;1617895;72;793;-61
2021/08/12 06:13:36;;;;;;;;;;;25.10;50.90;;;;;;1624511;72;1077;-60
2021/08/12 06:15:38;;;;;;;;;;;25.10;50.90;;;;;;1632121;72;731;-60
2021/08/12 06:17:40;;;;;;;;;;;25.10;50.80;;;;;;1630255;72;781;-60
2021/08/12 06:19:42;;;;;;;;;;;25.10;50.80;;;;;;1628960;72;779;-59
2021/08/12 06:21:44;;;;;;;;;;;25.10;50.80;;;;;;1628080;72;733;-59
2021/08/12 06:23:46;;;;;;;;;;;25.00;50.80;;;;;;1636312;72;1113;-59
2021/08/12 06:25:47;;;;;;;;;;;25.10;50.80;;;;;;1622897;72;764;-61
2021/08/12 06:27:49;;;;;;;;;;;25.10;50.90;;;;;;1621644;72;733;-60
2021/08/12 06:29:51;;;;;;;;;;;25.10;50.90;;;;;;1631718;72;1944;-60
2021/08/12 06:31:54;;;;;;;;;;;25.10;50.80;;;;;;1625141;72;654;-60
2021/08/12 06:33:56;;;;;;;;;;;25.10;50.70;;;;;;1633341;71;1131;-60
2021/08/12 06:35:58;;;;;;;;;;;25.10;50.70;;;;;;1621167;72;794;-60
2021/08/12 06:38:00;;;;;;;;;;;25.10;50.80;;;;;;1624585;71;701;-59
2021/08/12 06:40:01;;;;;;;;;;;25.10;50.80;;;;;;1626532;72;741;-61
2021/08/12 06:42:04;;;;;;;;;;;25.20;50.70;;;;;;1619236;71;804;-60
2021/08/12 06:44:06;;;;;;;;;;;25.20;50.70;;;;;;1625091;72;1093;-60
2021/08/12 06:46:08;;;;;;;;;;;25.20;50.80;;;;;;1622849;72;730;-60
2021/08/12 06:48:10;;;;;;;;;;;25.10;50.80;;;;;;1627660;71;822;-59
2021/08/12 06:50:13;;;;;;;;;;;25.10;50.80;;;;;;1628413;72;1952;-60
2021/08/12 06:52:15;;;;;;;;;;;25.10;50.80;;;;;;1630079;72;1174;-60
2021/08/12 06:54:16;;;;;;;;;;;25.20;50.80;;;;;;1619562;72;819;-60
2021/08/12 06:56:18;;;;;;;;;;;25.20;50.70;;;;;;1619801;72;713;-60
2021/08/12 06:58:20;;;;;;;;;;;25.20;50.80;;;;;;1624377;72;791;-60
2021/08/12 07:00:22;;;;;;;;;;;25.20;50.90;;;;;;1619864;71;712;-61
2021/08/12 07:02:24;;;;;;;;;;;25.20;50.80;;;;;;1613966;71;1127;-60
2021/08/12 07:04:26;;;;;;;;;;;25.20;50.80;;;;;;1621522;72;784;-61
2021/08/12 07:06:28;;;;;;;;;;;25.20;50.80;;;;;;1624589;72;752;-61
2021/08/12 07:08:30;;;;;;;;;;;25.20;50.80;;;;;;1625447;72;788;-60
2021/08/12 07:10:32;;;;;;;;;;;25.20;50.80;;;;;;1625204;72;781;-60
2021/08/12 07:12:33;;;;;;;;;;;25.20;50.70;;;;;;1622955;72;1312;-59
2021/08/12 07:14:36;;;;;;;;;;;25.20;50.80;;;;;;1619655;71;725;-60
2021/08/12 07:16:38;;;;;;;;;;;25.30;50.80;;;;;;1618935;72;831;-61
2021/08/12 07:18:41;;;;;;;;;;;25.30;50.70;;;;;;1627107;71;750;-60
2021/08/12 07:20:43;;;;;;;;;;;25.30;50.80;;;;;;1628837;72;773;-61
2021/08/12 07:22:45;;;;;;;;;;;25.30;50.70;;;;;;1614523;72;1115;-61
2021/08/12 07:24:47;;;;;;;;;;;25.20;50.80;;;;;;1629285;72;766;-60
2021/08/12 07:26:49;;;;;;;;;;;25.40;50.90;;;;;;1625671;72;784;-61
2021/08/12 07:28:50;;;;;;;;;;;25.30;50.80;;;;;;1624295;71;1923;-60
2021/08/12 07:30:52;;;;;;;;;;;25.30;50.80;;;;;;1621271;71;706;-60
2021/08/12 07:32:54;;;;;;;;;;;25.40;50.80;;;;;;1624141;71;1202;-60
2021/08/12 07:34:56;;;;;;;;;;;25.30;50.80;;;;;;1636714;72;845;-60
2021/08/12 07:36:58;;;;;;;;;;;25.30;50.80;;;;;;1629716;71;656;-60
2021/08/12 07:39:00;;;;;;;;;;;25.40;50.80;;;;;;1615592;72;814;-61
2021/08/12 07:41:02;;;;;;;;;;;25.40;50.90;;;;;;1629304;72;734;-60
2021/08/12 07:43:03;;;;;;;;;;;25.40;50.80;;;;;;1626103;72;1129;-61
2021/08/12 07:45:06;;;;;;;;;;;25.20;50.90;;;;;;1629995;72;714;-60
2021/08/12 07:47:08;;;;;;;;;;;25.30;50.90;;;;;;1623770;72;714;-60
2021/08/12 07:49:09;;;;;;;;;;;25.40;50.90;;;;;;1616038;72;1917;-60
2021/08/12 07:51:11;;;;;;;;;;;25.40;50.90;;;;;;1635141;72;622;-61
2021/08/12 07:53:13;;;;;;;;;;;25.30;50.90;;;;;;1622941;71;1135;-59
2021/08/12 07:55:15;;;;;;;;;;;25.40;50.90;;;;;;1615860;72;691;-61
2021/08/12 07:57:17;;;;;;;;;;;25.40;50.90;;;;;;1616660;71;781;-61
2021/08/12 07:59:19;;;;;;;;;;;25.30;50.90;;;;;;1627469;71;813;-59
2021/08/12 08:01:21;;;;;;;;;;;25.40;50.90;;;;;;1638755;72;812;-60
2021/08/12 08:03:23;;;;;;;;;;;25.40;51.00;;;;;;1622197;72;1145;-59
2021/08/12 08:05:25;;;;;;;;;;;25.30;51.00;;;;;;1632564;72;761;-60
2021/08/12 08:07:27;;;;;;;;;;;25.50;51.00;;;;;;1622995;72;706;-58
2021/08/12 08:09:29;;;;;;;;;;;25.40;51.30;;;;;;1623886;71;1929;-59
2021/08/12 08:11:31;;;;;;;;;;;25.50;51.40;;;;;;1621439;72;688;-59
2021/08/12 08:13:33;;;;;;;;;;;25.50;51.40;;;;;;1620000;72;1163;-59
2021/08/12 08:15:35;;;;;;;;;;;25.50;51.40;;;;;;1626979;72;689;-60
2021/08/12 08:17:37;;;;;;;;;;;25.50;51.40;;;;;;1621026;72;803;-60
2021/08/12 08:19:39;;;;;;;;;;;25.60;51.30;;;;;;1622003;71;715;-60
2021/08/12 08:21:41;;;;;;;;;;;25.60;51.40;;;;;;1621219;72;747;-60
2021/08/12 08:23:42;;;;;;;;;;;25.60;51.30;;;;;;1627625;71;1140;-62
2021/08/12 08:25:44;;;;;;;;;;;25.50;51.20;;;;;;1632495;72;664;-59
2021/08/12 08:27:46;;;;;;;;;;;25.50;51.30;;;;;;1620542;72;756;-59
2021/08/12 08:29:48;;;;;;;;;;;25.60;51.30;;;;;;1625179;71;1933;-60
2021/08/12 08:31:50;;;;;;;;;;;25.60;51.80;;;;;;1625874;72;770;-60
2021/08/12 08:33:52;;;;;;;;;;;25.60;51.30;;;;;;1620593;71;1121;-59
2021/08/12 08:35:54;;;;;;;;;;;25.70;51.20;;;;;;1624118;72;751;-60
2021/08/12 08:37:56;;;;;;;;;;;25.70;51.20;;;;;;1616435;72;779;-60
2021/08/12 08:39:58;;;;;;;;;;;25.70;51.10;;;;;;1624551;72;809;-59
2021/08/12 08:42:00;;;;;;;;;;;25.70;51.10;;;;;;1624877;72;679;-60
2021/08/12 08:44:02;;;;;;;;;;;25.70;51.40;;;;;;1625029;71;1101;-59
2021/08/12 08:46:04;;;;;;;;;;;25.80;51.20;;;;;;1624173;72;809;-60
2021/08/12 08:48:06;;;;;;;;;;;25.70;51.70;;;;;;1623331;72;712;-59
2021/08/12 08:50:09;;;;;;;;;;;25.80;51.60;;;;;;1599646;73;1917;-60
2021/08/12 08:52:12;;;;;;;;;;;25.90;51.40;;;;;;1617945;72;712;-60
2021/08/12 08:54:14;;;;;;;;;;;25.90;51.40;;;;;;1619386;71;1167;-60
2021/08/12 08:56:18;;;;;;;;;;;25.90;51.20;;;;;;1616465;72;744;-60
2021/08/12 08:58:20;;;;;;;;;;;25.80;51.80;;;;;;1618801;72;1119;-60
2021/08/12 09:00:23;;;;;;;;;;;25.80;52.00;;;;;;1616979;72;709;-61
2021/08/12 09:02:24;;;;;;;;;;;25.80;51.90;;;;;;1627054;72;1154;-60
2021/08/12 09:04:26;;;;;;;;;;;25.80;51.60;;;;;;1618815;72;727;-60
2021/08/12 09:06:28;;;;;;;;;;;25.90;51.20;;;;;;1621268;72;717;-61
2021/08/12 09:08:31;;;;;;;;;;;25.90;51.40;;;;;;1603817;72;222593;-70
2021/08/12 09:10:33;;;;;;;;;;;25.90;51.30;;;;;;1591357;73;1928;-71
2021/08/12 09:12:36;;;;;;;;;;;25.90;51.40;;;;;;1596625;73;742;-72
2021/08/12 09:14:40;;;;;;;;;;;25.90;51.00;;;;;;1582453;73;667;-72
2021/08/12 09:16:41;;;;;;;;;;;25.90;50.90;;;;;;1596984;73;956;-73
2021/08/12 09:18:43;;;;;;;;;;;25.90;50.60;;;;;;1602686;73;1179;-71
2021/08/12 09:20:46;;;;;;;;;;;26.00;50.90;;;;;;1591078;73;760;-72
2021/08/12 09:22:49;;;;;;;;;;;26.00;51.00;;;;;;1596850;73;761;-73
2021/08/12 09:24:51;;;;;;;;;;;26.00;50.70;;;;;;1584048;73;735;-72
2021/08/12 09:26:53;;;;;;;;;;;25.90;50.70;;;;;;1596097;73;666;-72
2021/08/12 09:28:55;;;;;;;;;;;26.00;51.00;;;;;;1595713;73;1145;-71
2021/08/12 09:31:02;;;;;;;;;;;26.00;50.70;;;;;;1599336;73;1940;-72
2021/08/12 09:33:04;;;;;;;;;;;26.10;50.60;;;;;;1587457;73;716;-72
2021/08/12 09:35:05;;;;;;;;;;;26.10;50.50;;;;;;1594669;73;736;-71
2021/08/12 09:37:07;;;;;;;;;;;26.20;50.30;;;;;;1582925;73;778;-71
2021/08/12 09:39:14;;;;;;;;;;;26.10;50.20;;;;;;1588426;73;1115;-72
2021/08/12 09:41:15;;;;;;;;;;;26.10;50.10;;;;;;1578674;73;736;-70
2021/08/12 09:43:17;;;;;;;;;;;26.10;50.00;;;;;;1580196;73;738;-72
2021/08/12 09:45:23;;;;;;;;;;;26.10;49.80;;;;;;1589729;73;756;-72
2021/08/12 09:47:27;;;;;;;;;;;26.10;48.00;;;;;;1589704;73;765;-70
2021/08/12 09:49:38;;;;;;;;;;;25.90;47.30;;;;;;1589509;73;1132;-71
2021/08/12 09:51:40;;;;;;;;;;;25.90;48.70;;;;;;1588830;73;728;-72
2021/08/12 09:53:42;;;;;;;;;;;26.00;48.90;;;;;;1595547;73;711;-72
2021/08/12 09:55:44;;;;;;;;;;;26.00;49.20;;;;;;1594327;73;752;-73
2021/08/12 09:57:53;;;;;;;;;;;26.10;49.00;;;;;;1592925;73;634;-71
2021/08/12 09:59:55;;;;;;;;;;;26.10;49.00;;;;;;1587367;73;1789;-71
2021/08/12 10:02:13;;;;;;;;;;;26.00;49.00;;;;;;1593751;74;774;-71
2021/08/12 10:04:24;;;;;;;;;;;26.10;49.00;;;;;;1591642;74;756;-72
2021/08/12 10:06:31;;;;;;;;;;;26.10;49.10;;;;;;1592756;73;746;-72
2021/08/12 10:08:34;;;;;;;;;;;26.10;49.20;;;;;;1591023;73;1431;-72
2021/08/12 10:10:38;;;;;;;;;;;26.00;49.30;;;;;;1588630;73;1933;-73
2021/08/12 10:12:46;;;;;;;;;;;26.00;49.30;;;;;;1598184;73;759;-72
2021/08/12 10:14:46;;;;;;;;;;;26.00;49.30;;;;;;1592262;73;1110;-71
2021/08/12 10:16:48;;;;;;;;;;;26.00;48.90;;;;;;1595822;73;637;-71
2021/08/12 10:18:50;;;;;;;;;;;26.10;49.20;;;;;;1581834;73;1091;-72
2021/08/12 10:20:52;;;;;;;;;;;26.10;49.20;;;;;;1592224;73;732;-72
2021/08/12 10:22:54;;;;;;;;;;;26.10;49.30;;;;;;1587380;73;792;-70
2021/08/12 10:24:56;;;;;;;;;;;26.00;49.30;;;;;;1585905;73;818;-72
2021/08/12 10:26:59;;;;;;;;;;;26.10;49.20;;;;;;1590254;73;746;-72
2021/08/12 10:29:05;;;;;;;;;;;26.20;49.20;;;;;;1588451;73;1134;-72
2021/08/12 10:31:07;;;;;;;;;;;26.20;49.20;;;;;;1586089;74;1918;-71
2021/08/12 10:33:09;;;;;;;;;;;26.10;49.30;;;;;;1597013;73;793;-72
2021/08/12 10:35:10;;;;;;;;;;;26.10;49.20;;;;;;1591658;73;751;-72
2021/08/12 10:37:12;;;;;;;;;;;26.20;49.20;;;;;;1592648;73;743;-73
2021/08/12 10:39:14;;;;;;;;;;;26.10;49.10;;;;;;1581222;73;1123;-73
2021/08/12 10:41:16;;;;;;;;;;;26.10;49.20;;;;;;1592174;73;786;-72
2021/08/12 10:43:26;;;;;;;;;;;26.10;49.20;;;;;;1580779;74;728;-72
2021/08/12 10:45:28;;;;;;;;;;;26.00;49.20;;;;;;1588861;73;1495;-72
2021/08/12 10:47:44;;;;;;;;;;;26.20;49.20;;;;;;1579432;73;794;-71
2021/08/12 10:49:46;;;;;;;;;;;26.10;49.20;;;;;;1588009;73;1104;-71
2021/08/12 10:51:49;;;;;;;;;;;26.00;48.90;;;;;;1585010;73;1952;-71
2021/08/12 10:54:05;;;;;;;;;;;26.00;48.80;;;;;;1586128;73;1886;-71
2021/08/12 10:56:08;;;;;;;;;;;26.00;48.90;;;;;;1561048;73;1111;-70
2021/08/12 10:58:22;;;;;;;;;;;26.00;48.90;;;;;;1598138;73;704;-71
2021/08/12 11:00:42;;;;;;;;;;;26.00;48.90;;;;;;1598466;73;880;-70
2021/08/12 11:02:44;;;;;;;;;;;26.00;48.90;;;;;;1589048;74;788;-71
2021/08/12 11:04:50;;;;;;;;;;;26.00;48.80;;;;;;1590961;73;611;-72
2021/08/12 11:06:52;;;;;;;;;;;26.00;48.30;;;;;;1587307;73;749;-72
2021/08/12 11:08:58;;;;;;;;;;;25.90;46.90;;;;;;1590823;73;1122;-70
2021/08/12 11:11:00;;;;;;;;;;;25.90;48.00;;;;;;1590625;73;1925;-72
2021/08/12 11:13:02;;;;;;;;;;;26.00;48.60;;;;;;1594359;73;748;-71
2021/08/12 11:15:04;;;;;;;;;;;26.00;48.90;;;;;;1588275;73;936;-71
2021/08/12 11:17:06;;;;;;;;;;;25.90;48.20;;;;;;1587574;73;736;-71
2021/08/12 11:19:08;;;;;;;;;;;26.00;48.90;;;;;;1585865;73;1134;-71
2021/08/12 11:21:28;;;;;;;;;;;25.90;48.60;;;;;;1594620;73;885;-71
2021/08/12 11:23:38;;;;;;;;;;;25.90;48.60;;;;;;1585918;73;800;-72
2021/08/12 11:25:56;;;;;;;;;;;26.00;49.20;;;;;;1589651;73;774;-71
2021/08/12 11:27:58;;;;;;;;;;;26.10;49.40;;;;;;1591661;73;1898;-72
2021/08/12 11:30:01;;;;;;;;;;;26.10;49.40;;;;;;1592618;73;1060;-72
2021/08/12 11:32:05;;;;;;;;;;;26.10;49.40;;;;;;1590121;73;1940;-71
2021/08/12 11:34:08;;;;;;;;;;;26.00;48.90;;;;;;1582105;73;722;-71
2021/08/12 11:36:14;;;;;;;;;;;26.00;49.30;;;;;;1585356;73;1847;-73
2021/08/12 11:38:16;;;;;;;;;;;25.90;48.70;;;;;;1581451;73;788;-72
2021/08/12 11:40:18;;;;;;;;;;;26.00;49.30;;;;;;1591109;73;1067;-72
2021/08/12 11:42:40;;;;;;;;;;;26.00;49.40;;;;;;1564573;74;722;-72
2021/08/12 11:44:43;;;;;;;;;;;26.10;49.30;;;;;;1585797;73;725;-70
2021/08/12 11:46:46;;;;;;;;;;;26.20;49.30;;;;;;1594100;73;1618;-71
2021/08/12 11:48:50;;;;;;;;;;;26.10;49.30;;;;;;1589389;73;1125;-70
2021/08/12 11:50:51;;;;;;;;;;;26.00;49.40;;;;;;1585750;73;1904;-70
2021/08/12 11:52:53;;;;;;;;;;;26.00;49.40;;;;;;1596399;73;794;-70
2021/08/12 11:54:56;;;;;;;;;;;25.90;48.60;;;;;;1592509;73;745;-71
2021/08/12 11:56:57;;;;;;;;;;;25.90;48.90;;;;;;1597851;73;758;-71
2021/08/12 11:59:00;;;;;;;;;;;26.00;49.30;;;;;;1588729;73;1165;-71
2021/08/12 12:01:09;;;;;;;;;;;26.00;49.40;;;;;;1579404;73;793;-71
2021/08/12 12:03:11;;;;;;;;;;;26.10;49.30;;;;;;1591425;74;1784;-70
2021/08/12 12:05:13;;;;;;;;;;;26.10;49.30;;;;;;1582675;73;797;-70
2021/08/12 12:07:15;;;;;;;;;;;26.10;49.40;;;;;;1596420;73;736;-72
2021/08/12 12:09:21;;;;;;;;;;;26.10;49.50;;;;;;1581304;73;1138;-70
2021/08/12 12:11:23;;;;;;;;;;;26.10;49.50;;;;;;1590934;73;1934;-70
2021/08/12 12:13:25;;;;;;;;;;;26.00;48.80;;;;;;1593621;73;697;-70